Weather at Cologne Bonn Airport

Public forecast

Using degrees Celsius for public forecast. Weather courtesy of forecast.io.

Current aviation weather report (METAR) for Cologne Bonn Airport

Retrieved 2021/12/05 09:20 UTC (39 minutes ago):

EDDK 050920Z 15010KT 9999 BKN043 04/01 Q1002 NOSIG

Aviation forecast (TAF) for Cologne Bonn Airport

Retrieved 2021/12/05 06:27 UTC (4 hours ago):

TAF EDDK 050500Z 0506/0612 18007KT 9999 BKN020 PROB30 TEMPO 0507/0518 RA BKN014 BECMG 0514/0517 11004KT PROB30 TEMPO 0602/0610 1200 BR BKN001